Time,TemperatureF,DewpointF,PressureIn,WindDirection,WindDirectionDegrees,WindSpeedMPH,WindSpeedGustMPH,Humidity,HourlyPrecipIn,Conditions,Clouds,dailyrainin,SoftwareType,DateUTC
2013-03-28 00:11:00,39.9,29.0,30.08,SE,124,0.0,5.0,65,0.00,,,0.00,weatherlink.com 1.10,2013-03-28 04:11:00,
2013-03-28 00:27:00,40.0,29.0,30.08,SW,232,1.0,5.0,65,0.00,,,0.00,weatherlink.com 1.10,2013-03-28 04:27:00,
2013-03-28 00:42:00,39.6,29.0,30.08,West,278,0.0,5.0,66,0.00,,,0.00,weatherlink.com 1.10,2013-03-28 04:42:00,
2013-03-28 00:57:00,39.2,29.0,30.08,WSW,245,0.0,5.0,67,0.00,,,0.00,weatherlink.com 1.10,2013-03-28 04:57:00,
2013-03-28 01:12:00,38.9,29.0,30.08,WSW,251,2.0,5.0,68,0.00,,,0.00,weatherlink.com 1.10,2013-03-28 05:12:00,
2013-03-28 01:27:00,38.7,29.0,30.08,West,269,1.0,4.0,68,0.00,,,0.00,weatherlink.com 1.10,2013-03-28 05:27:00,
2013-03-28 01:42:00,38.5,29.0,30.08,WSW,246,2.0,4.0,69,0.00,,,0.00,weatherlink.com 1.10,2013-03-28 05:42:00,
2013-03-28 01:57:00,38.9,29.0,30.08,WSW,249,2.0,8.0,68,0.00,,,0.00,weatherlink.com 1.10,2013-03-28 05:57:00,
2013-03-28 02:12:00,38.5,29.0,30.08,WSW,240,1.0,6.0,69,0.00,,,0.00,weatherlink.com 1.10,2013-03-28 06:12:00,
2013-03-28 02:27:00,37.9,29.0,30.08,West,274,0.0,2.0,71,0.00,,,0.00,weatherlink.com 1.10,2013-03-28 06:27:00,
2013-03-28 02:42:00,37.3,29.0,30.08,SW,232,0.0,2.0,72,0.00,,,0.00,weatherlink.com 1.10,2013-03-28 06:42:00,
2013-03-28 02:57:00,37.3,29.0,30.08,West,273,0.0,2.0,72,0.00,,,0.00,weatherlink.com 1.10,2013-03-28 06:57:00,
2013-03-28 03:12:00,37.4,29.0,30.08,West,263,0.0,3.0,72,0.00,,,0.00,weatherlink.com 1.10,2013-03-28 07:12:00,
2013-03-28 03:27:00,36.8,29.0,30.08,West,264,0.0,1.0,73,0.00,,,0.00,weatherlink.com 1.10,2013-03-28 07:27:00,
2013-03-28 03:42:00,36.7,29.0,30.08,SW,228,0.0,2.0,73,0.00,,,0.00,weatherlink.com 1.10,2013-03-28 07:42:00,
2013-03-28 03:57:00,36.7,29.0,30.07,WSW,258,0.0,2.0,74,0.00,,,0.00,weatherlink.com 1.10,2013-03-28 07:57:00,
2013-03-28 04:12:00,37.3,29.0,30.07,ESE,113,1.0,3.0,73,0.00,,,0.00,weatherlink.com 1.10,2013-03-28 08:12:00,
2013-03-28 04:27:00,37.9,30.0,30.07,WSW,256,0.0,4.0,72,0.00,,,0.00,weatherlink.com 1.10,2013-03-28 08:27:00,
2013-03-28 04:42:00,37.9,30.0,30.07,WNW,284,0.0,5.0,72,0.00,,,0.00,weatherlink.com 1.10,2013-03-28 08:42:00,
2013-03-28 04:57:00,37.1,29.0,30.07,NW,307,0.0,4.0,73,0.00,,,0.00,weatherlink.com 1.10,2013-03-28 08:57:00,
2013-03-28 05:12:00,36.9,29.0,30.07,WNW,287,0.0,2.0,73,0.00,,,0.00,weatherlink.com 1.10,2013-03-28 09:12:00,
2013-03-28 05:27:00,36.9,29.0,30.07,WSW,249,0.0,2.0,72,0.00,,,0.00,weatherlink.com 1.10,2013-03-28 09:27:00,
2013-03-28 05:42:00,36.5,29.0,30.07,WSW,243,0.0,2.0,73,0.00,,,0.00,weatherlink.com 1.10,2013-03-28 09:42:00,
2013-03-28 05:57:00,36.7,28.0,30.07,West,273,0.0,3.0,72,0.00,,,0.00,weatherlink.com 1.10,2013-03-28 09:57:00,
2013-03-28 06:12:00,36.6,28.0,30.07,WSW,249,5.0,5.0,72,0.00,,,0.00,weatherlink.com 1.10,2013-03-28 10:12:00,
2013-03-28 06:27:00,36.6,28.0,30.07,West,270,0.0,1.0,72,0.00,,,0.00,weatherlink.com 1.10,2013-03-28 10:27:00,
2013-03-28 06:42:00,36.5,28.0,30.07,West,277,0.0,3.0,72,0.00,,,0.00,weatherlink.com 1.10,2013-03-28 10:42:00,
2013-03-28 06:57:00,36.6,28.0,30.07,SW,229,2.0,3.0,72,0.00,,,0.00,weatherlink.com 1.10,2013-03-28 10:57:00,
2013-03-28 07:12:00,36.3,28.0,30.07,WSW,242,0.0,1.0,72,0.00,,,0.00,weatherlink.com 1.10,2013-03-28 11:12:00,
2013-03-28 07:27:00,37.1,29.0,30.08,West,261,0.0,3.0,72,0.00,,,0.00,weatherlink.com 1.10,2013-03-28 11:27:00,
2013-03-28 07:42:00,37.8,29.0,30.08,WSW,243,1.0,4.0,71,0.00,,,0.00,weatherlink.com 1.10,2013-03-28 11:42:00,
2013-03-28 07:57:00,39.3,29.0,30.08,WNW,290,0.0,6.0,68,0.00,,,0.00,weatherlink.com 1.10,2013-03-28 11:57:00,
2013-03-28 08:12:00,39.6,29.0,30.08,West,278,2.0,5.0,67,0.00,,,0.00,weatherlink.com 1.10,2013-03-28 12:12:00,
2013-03-28 08:27:00,41.3,30.0,30.08,WNW,297,1.0,9.0,65,0.00,,,0.00,weatherlink.com 1.10,2013-03-28 12:27:00,
2013-03-28 08:42:00,41.8,31.0,30.08,WSW,256,2.0,4.0,65,0.00,,,0.00,weatherlink.com 1.10,2013-03-28 12:42:00,
2013-03-28 08:57:00,43.3,31.0,30.08,WSW,242,4.0,9.0,63,0.00,,,0.00,weatherlink.com 1.10,2013-03-28 12:57:00,
2013-03-28 09:12:00,43.5,31.0,30.08,WSW,253,1.0,12.0,62,0.00,,,0.00,weatherlink.com 1.10,2013-03-28 13:12:00,
2013-03-28 09:28:00,45.4,32.0,30.08,WNW,293,7.0,13.0,59,0.00,,,0.00,weatherlink.com 1.10,2013-03-28 13:28:00,
2013-03-28 09:43:00,46.0,32.0,30.08,West,267,5.0,11.0,58,0.00,,,0.00,weatherlink.com 1.10,2013-03-28 13:43:00,
2013-03-28 09:58:00,47.3,32.0,30.08,WSW,248,2.0,16.0,55,0.00,,,0.00,weatherlink.com 1.10,2013-03-28 13:58:00,
2013-03-28 10:13:00,47.3,32.0,30.08,WSW,255,1.0,17.0,55,0.00,,,0.00,weatherlink.com 1.10,2013-03-28 14:13:00,
2013-03-28 10:28:00,48.2,32.0,30.09,WNW,285,6.0,12.0,53,0.00,,,0.00,weatherlink.com 1.10,2013-03-28 14:28:00,
2013-03-28 10:43:00,48.6,32.0,30.09,WNW,288,2.0,8.0,54,0.00,,,0.00,weatherlink.com 1.10,2013-03-28 14:43:00,
2013-03-28 10:58:00,47.6,32.0,30.09,SSE,160,1.0,13.0,55,0.00,,,0.00,weatherlink.com 1.10,2013-03-28 14:58:00,
2013-03-28 11:13:00,46.8,32.0,30.09,WNW,301,6.0,14.0,57,0.00,,,0.00,weatherlink.com 1.10,2013-03-28 15:13:00,
2013-03-28 11:28:00,47.2,32.0,30.09,NW,304,3.0,14.0,55,0.00,,,0.00,weatherlink.com 1.10,2013-03-28 15:28:00,
2013-03-28 11:43:00,48.5,33.0,30.09,West,277,3.0,11.0,55,0.00,,,0.00,weatherlink.com 1.10,2013-03-28 15:43:00,
2013-03-28 11:58:00,47.9,32.0,30.09,WSW,243,2.0,16.0,55,0.00,,,0.00,weatherlink.com 1.10,2013-03-28 15:58:00,
2013-03-28 12:13:00,47.6,31.0,30.09,West,267,7.0,16.0,54,0.00,,,0.00,weatherlink.com 1.10,2013-03-28 16:13:00,
2013-03-28 12:28:00,47.2,32.0,30.09,West,270,2.0,12.0,55,0.00,,,0.00,weatherlink.com 1.10,2013-03-28 16:28:00,
2013-03-28 12:43:00,47.0,31.0,30.09,East,81,3.0,14.0,55,0.00,,,0.00,weatherlink.com 1.10,2013-03-28 16:43:00,
2013-03-28 12:58:00,47.1,31.0,30.09,NNE,20,5.0,11.0,54,0.00,,,0.00,weatherlink.com 1.10,2013-03-28 16:58:00,
2013-03-28 13:13:00,46.5,30.0,30.09,NNE,19,11.0,16.0,54,0.00,,,0.00,weatherlink.com 1.10,2013-03-28 17:13:00,
2013-03-28 13:28:00,46.6,31.0,30.09,NE,44,2.0,10.0,55,0.00,,,0.00,weatherlink.com 1.10,2013-03-28 17:28:00,
2013-03-28 13:43:00,48.4,31.0,30.09,NNE,25,8.0,17.0,52,0.00,,,0.00,weatherlink.com 1.10,2013-03-28 17:43:00,
2013-03-28 13:58:00,49.0,30.0,30.08,WNW,298,3.0,9.0,49,0.00,,,0.00,weatherlink.com 1.10,2013-03-28 17:58:00,
2013-03-28 14:13:00,48.1,30.0,30.09,North,4,7.0,15.0,50,0.00,,,0.00,weatherlink.com 1.10,2013-03-28 18:13:00,
2013-03-28 14:28:00,49.1,29.0,30.08,NE,51,5.0,12.0,47,0.00,,,0.00,weatherlink.com 1.10,2013-03-28 18:28:00,
2013-03-28 14:43:00,48.6,30.0,30.08,West,280,4.0,16.0,48,0.00,,,0.00,weatherlink.com 1.10,2013-03-28 18:43:00,
2013-03-28 14:58:00,48.6,29.0,30.09,NW,304,6.0,10.0,47,0.00,,,0.00,weatherlink.com 1.10,2013-03-28 18:58:00,
2013-03-28 15:13:00,48.4,29.0,30.09,NNW,335,1.0,10.0,47,0.00,,,0.00,weatherlink.com 1.10,2013-03-28 19:13:00,
2013-03-28 15:28:00,48.2,29.0,30.09,NE,40,5.0,11.0,47,0.00,,,0.00,weatherlink.com 1.10,2013-03-28 19:28:00,
2013-03-28 15:43:00,48.4,29.0,30.08,NNE,22,1.0,12.0,47,0.00,,,0.00,weatherlink.com 1.10,2013-03-28 19:43:00,
2013-03-28 15:58:00,48.6,27.0,30.08,WSW,240,4.0,11.0,44,0.00,,,0.00,weatherlink.com 1.10,2013-03-28 19:58:00,
2013-03-28 16:13:00,48.0,27.0,30.08,West,279,8.0,16.0,44,0.00,,,0.00,weatherlink.com 1.10,2013-03-28 20:13:00,
2013-03-28 16:28:00,48.8,28.0,30.09,WNW,298,6.0,13.0,44,0.00,,,0.00,weatherlink.com 1.10,2013-03-28 20:28:00,
2013-03-28 16:43:00,48.1,28.0,30.09,SE,136,1.0,10.0,45,0.00,,,0.00,weatherlink.com 1.10,2013-03-28 20:43:00,
2013-03-28 16:58:00,48.7,28.0,30.09,ENE,63,6.0,10.0,45,0.00,,,0.00,weatherlink.com 1.10,2013-03-28 20:58:00,
2013-03-28 17:13:00,48.5,28.0,30.10,WSW,252,1.0,10.0,45,0.00,,,0.00,weatherlink.com 1.10,2013-03-28 21:13:00,
2013-03-28 17:28:00,48.3,28.0,30.10,NE,46,2.0,10.0,46,0.00,,,0.00,weatherlink.com 1.10,2013-03-28 21:28:00,
2013-03-28 17:43:00,48.4,28.0,30.11,WSW,255,1.0,7.0,46,0.00,,,0.00,weatherlink.com 1.10,2013-03-28 21:43:00,
2013-03-28 18:13:00,48.3,28.0,30.11,ENE,67,1.0,7.0,45,0.00,,,0.00,weatherlink.com 1.10,2013-03-28 22:13:00,
2013-03-28 18:28:00,47.9,29.0,30.12,NW,308,2.0,7.0,49,0.00,,,0.00,weatherlink.com 1.10,2013-03-28 22:28:00,
2013-03-28 18:43:00,47.4,30.0,30.12,West,277,3.0,11.0,52,0.00,,,0.00,weatherlink.com 1.10,2013-03-28 22:43:00,
2013-03-28 18:58:00,47.1,31.0,30.13,WNW,289,5.0,7.0,53,0.00,,,0.00,weatherlink.com 1.10,2013-03-28 22:58:00,
2013-03-28 19:13:00,46.8,31.0,30.14,ENE,75,1.0,10.0,55,0.00,,,0.00,weatherlink.com 1.10,2013-03-28 23:13:00,
2013-03-28 19:28:00,46.5,31.0,30.15,West,269,0.0,10.0,56,0.00,,,0.00,weatherlink.com 1.10,2013-03-28 23:28:00,
2013-03-28 19:43:00,46.3,31.0,30.15,West,278,1.0,10.0,56,0.00,,,0.00,weatherlink.com 1.10,2013-03-28 23:43:00,
2013-03-28 20:00:00,46.0,32.0,30.16,WNW,287,0.0,6.0,58,0.00,,,0.00,weatherlink.com 1.10,2013-03-29 00:00:00,
2013-03-28 20:13:00,45.8,31.0,30.16,WNW,301,3.0,7.0,57,0.00,,,0.00,weatherlink.com 1.10,2013-03-29 00:13:00,
2013-03-28 20:28:00,45.7,31.0,30.16,NW,304,3.0,7.0,58,0.00,,,0.00,weatherlink.com 1.10,2013-03-29 00:28:00,
2013-03-28 20:44:00,45.4,31.0,30.17,WNW,287,2.0,5.0,58,0.00,,,0.00,weatherlink.com 1.10,2013-03-29 00:44:00,
2013-03-28 20:59:00,45.5,31.0,30.17,West,262,2.0,10.0,57,0.00,,,0.00,weatherlink.com 1.10,2013-03-29 00:59:00,
2013-03-28 21:14:00,45.5,31.0,30.18,NW,308,6.0,8.0,58,0.00,,,0.00,weatherlink.com 1.10,2013-03-29 01:14:00,
2013-03-28 21:29:00,45.4,32.0,30.18,West,281,1.0,7.0,59,0.00,,,0.00,weatherlink.com 1.10,2013-03-29 01:29:00,
2013-03-28 21:44:00,45.3,32.0,30.18,WNW,297,6.0,9.0,59,0.00,,,0.00,weatherlink.com 1.10,2013-03-29 01:44:00,
2013-03-28 21:59:00,45.3,32.0,30.18,West,277,1.0,5.0,59,0.00,,,0.00,weatherlink.com 1.10,2013-03-29 01:59:00,
2013-03-28 22:14:00,44.3,31.0,30.19,WNW,289,1.0,5.0,61,0.00,,,0.00,weatherlink.com 1.10,2013-03-29 02:14:00,
2013-03-28 22:29:00,43.5,32.0,30.19,NW,313,0.0,3.0,63,0.00,,,0.00,weatherlink.com 1.10,2013-03-29 02:29:00,
2013-03-28 22:44:00,43.7,32.0,30.19,WNW,294,1.0,5.0,63,0.00,,,0.00,weatherlink.com 1.10,2013-03-29 02:44:00,
2013-03-28 22:59:00,44.0,32.0,30.19,NNW,346,2.0,5.0,63,0.00,,,0.00,weatherlink.com 1.10,2013-03-29 02:59:00,
2013-03-28 23:29:00,43.2,31.0,30.20,WSW,256,0.0,4.0,63,0.00,,,0.00,weatherlink.com 1.10,2013-03-29 03:29:00,
2013-03-28 23:44:00,43.0,32.0,30.20,North,349,1.0,5.0,65,0.00,,,0.00,weatherlink.com 1.10,2013-03-29 03:44:00,
2013-03-28 23:59:00,43.3,32.0,30.20,SW,233,1.0,5.0,64,0.00,,,0.00,weatherlink.com 1.10,2013-03-29 03:59:00,